sensor_id;sensor_type;location;lat;lon;timestamp;P1;durP1;ratioP1;P2;durP2;ratioP2
21168;SDS011;10742;51.816;8.662;2022-12-18T00:02:28;10.67;;;3.60;;
21168;SDS011;10742;51.816;8.662;2022-12-18T00:05:30;11.60;;;3.47;;
21168;SDS011;10742;51.816;8.662;2022-12-18T00:08:34;11.73;;;3.53;;
21168;SDS011;10742;51.816;8.662;2022-12-18T00:11:37;19.00;;;7.17;;
21168;SDS011;10742;51.816;8.662;2022-12-18T00:14:40;12.10;;;4.23;;
21168;SDS011;10742;51.816;8.662;2022-12-18T00:17:45;9.63;;;3.73;;
21168;SDS011;10742;51.816;8.662;2022-12-18T00:20:48;10.80;;;3.63;;
21168;SDS011;10742;51.816;8.662;2022-12-18T00:23:50;6.53;;;2.70;;
21168;SDS011;10742;51.816;8.662;2022-12-18T00:26:53;8.83;;;3.03;;
21168;SDS011;10742;51.816;8.662;2022-12-18T00:29:56;8.87;;;3.17;;
21168;SDS011;10742;51.816;8.662;2022-12-18T00:32:59;8.50;;;3.03;;
21168;SDS011;10742;51.816;8.662;2022-12-18T00:36:21;11.90;;;3.27;;
21168;SDS011;10742;51.816;8.662;2022-12-18T00:39:26;8.50;;;3.17;;
21168;SDS011;10742;51.816;8.662;2022-12-18T00:42:29;5.77;;;2.73;;
21168;SDS011;10742;51.816;8.662;2022-12-18T00:45:49;8.20;;;2.63;;
21168;SDS011;10742;51.816;8.662;2022-12-18T00:48:52;9.10;;;2.97;;
21168;SDS011;10742;51.816;8.662;2022-12-18T00:51:55;7.73;;;2.93;;
21168;SDS011;10742;51.816;8.662;2022-12-18T00:54:57;6.07;;;2.40;;
21168;SDS011;10742;51.816;8.662;2022-12-18T00:58:02;7.83;;;2.63;;
21168;SDS011;10742;51.816;8.662;2022-12-18T01:01:24;5.67;;;2.23;;
21168;SDS011;10742;51.816;8.662;2022-12-18T01:04:45;9.60;;;2.77;;
21168;SDS011;10742;51.816;8.662;2022-12-18T01:08:07;5.10;;;2.20;;
21168;SDS011;10742;51.816;8.662;2022-12-18T01:11:28;5.37;;;2.50;;
21168;SDS011;10742;51.816;8.662;2022-12-18T01:14:49;11.70;;;2.90;;
21168;SDS011;10742;51.816;8.662;2022-12-18T01:18:11;5.27;;;2.40;;
21168;SDS011;10742;51.816;8.662;2022-12-18T01:21:32;5.60;;;2.10;;
21168;SDS011;10742;51.816;8.662;2022-12-18T01:24:57;5.37;;;2.30;;
21168;SDS011;10742;51.816;8.662;2022-12-18T01:28:18;5.97;;;2.47;;
21168;SDS011;10742;51.816;8.662;2022-12-18T01:31:39;8.27;;;2.70;;
21168;SDS011;10742;51.816;8.662;2022-12-18T01:35:01;4.87;;;2.20;;
21168;SDS011;10742;51.816;8.662;2022-12-18T01:38:23;6.30;;;2.23;;
21168;SDS011;10742;51.816;8.662;2022-12-18T01:41:26;6.00;;;2.37;;
21168;SDS011;10742;51.816;8.662;2022-12-18T01:48:03;12.40;;;2.47;;
21168;SDS011;10742;51.816;8.662;2022-12-18T01:51:11;8.83;;;2.37;;
21168;SDS011;10742;51.816;8.662;2022-12-18T01:54:14;7.00;;;2.20;;
21168;SDS011;10742;51.816;8.662;2022-12-18T01:57:17;10.83;;;2.73;;
21168;SDS011;10742;51.816;8.662;2022-12-18T02:00:21;9.20;;;2.73;;
21168;SDS011;10742;51.816;8.662;2022-12-18T02:03:25;5.67;;;2.33;;
21168;SDS011;10742;51.816;8.662;2022-12-18T02:06:37;6.00;;;2.20;;
21168;SDS011;10742;51.816;8.662;2022-12-18T02:09:46;8.33;;;2.47;;
21168;SDS011;10742;51.816;8.662;2022-12-18T02:13:34;7.53;;;2.27;;
21168;SDS011;10742;51.816;8.662;2022-12-18T02:16:59;4.90;;;2.30;;
21168;SDS011;10742;51.816;8.662;2022-12-18T02:27:04;7.23;;;2.00;;
21168;SDS011;10742;51.816;8.662;2022-12-18T02:30:08;7.00;;;2.60;;
21168;SDS011;10742;51.816;8.662;2022-12-18T02:33:13;6.20;;;2.10;;
21168;SDS011;10742;51.816;8.662;2022-12-18T02:36:17;3.17;;;1.80;;
21168;SDS011;10742;51.816;8.662;2022-12-18T02:39:23;6.73;;;2.40;;
21168;SDS011;10742;51.816;8.662;2022-12-18T02:42:32;8.37;;;2.90;;
21168;SDS011;10742;51.816;8.662;2022-12-18T02:45:52;7.47;;;2.93;;
21168;SDS011;10742;51.816;8.662;2022-12-18T02:56:45;56.83;;;14.23;;
21168;SDS011;10742;51.816;8.662;2022-12-18T03:00:19;33.27;;;9.87;;
21168;SDS011;10742;51.816;8.662;2022-12-18T03:03:54;13.97;;;5.10;;
21168;SDS011;10742;51.816;8.662;2022-12-18T03:07:35;7.60;;;3.00;;
21168;SDS011;10742;51.816;8.662;2022-12-18T03:11:05;10.67;;;2.90;;
21168;SDS011;10742;51.816;8.662;2022-12-18T03:14:32;11.53;;;2.83;;
21168;SDS011;10742;51.816;8.662;2022-12-18T03:17:59;8.90;;;3.33;;
21168;SDS011;10742;51.816;8.662;2022-12-18T03:21:26;8.40;;;3.07;;
21168;SDS011;10742;51.816;8.662;2022-12-18T03:24:56;6.33;;;2.73;;
21168;SDS011;10742;51.816;8.662;2022-12-18T03:28:20;9.13;;;3.00;;
21168;SDS011;10742;51.816;8.662;2022-12-18T03:31:51;7.03;;;2.77;;
21168;SDS011;10742;51.816;8.662;2022-12-18T03:35:26;5.73;;;2.80;;
21168;SDS011;10742;51.816;8.662;2022-12-18T03:38:33;7.07;;;2.60;;
21168;SDS011;10742;51.816;8.662;2022-12-18T03:45:28;10.50;;;3.17;;
21168;SDS011;10742;51.816;8.662;2022-12-18T03:48:44;8.10;;;2.33;;
21168;SDS011;10742;51.816;8.662;2022-12-18T03:51:59;6.20;;;2.43;;
21168;SDS011;10742;51.816;8.662;2022-12-18T03:55:04;5.90;;;2.80;;
21168;SDS011;10742;51.816;8.662;2022-12-18T03:58:09;5.43;;;2.27;;
21168;SDS011;10742;51.816;8.662;2022-12-18T04:01:31;4.80;;;2.47;;
21168;SDS011;10742;51.816;8.662;2022-12-18T04:04:37;6.00;;;2.47;;
21168;SDS011;10742;51.816;8.662;2022-12-18T04:07:43;7.13;;;2.60;;
21168;SDS011;10742;51.816;8.662;2022-12-18T04:10:48;6.70;;;2.73;;
21168;SDS011;10742;51.816;8.662;2022-12-18T04:13:52;8.63;;;2.90;;
21168;SDS011;10742;51.816;8.662;2022-12-18T04:16:59;6.50;;;2.73;;
21168;SDS011;10742;51.816;8.662;2022-12-18T04:20:05;6.70;;;2.83;;
21168;SDS011;10742;51.816;8.662;2022-12-18T04:23:10;49.53;;;13.77;;
21168;SDS011;10742;51.816;8.662;2022-12-18T04:26:13;17.50;;;5.77;;
21168;SDS011;10742;51.816;8.662;2022-12-18T04:29:54;11.63;;;4.33;;
21168;SDS011;10742;51.816;8.662;2022-12-18T04:32:57;8.90;;;3.93;;
21168;SDS011;10742;51.816;8.662;2022-12-18T04:35:59;7.13;;;3.50;;
21168;SDS011;10742;51.816;8.662;2022-12-18T04:39:02;9.43;;;3.80;;
21168;SDS011;10742;51.816;8.662;2022-12-18T04:42:07;8.30;;;2.80;;
21168;SDS011;10742;51.816;8.662;2022-12-18T04:45:10;8.23;;;3.20;;
21168;SDS011;10742;51.816;8.662;2022-12-18T04:48:13;8.33;;;3.00;;
21168;SDS011;10742;51.816;8.662;2022-12-18T04:51:15;9.40;;;3.20;;
21168;SDS011;10742;51.816;8.662;2022-12-18T04:54:20;10.20;;;3.63;;
21168;SDS011;10742;51.816;8.662;2022-12-18T04:57:22;8.17;;;3.63;;
21168;SDS011;10742;51.816;8.662;2022-12-18T05:00:25;11.13;;;3.73;;
21168;SDS011;10742;51.816;8.662;2022-12-18T05:03:28;12.40;;;3.93;;
21168;SDS011;10742;51.816;8.662;2022-12-18T05:06:31;11.57;;;3.57;;
21168;SDS011;10742;51.816;8.662;2022-12-18T05:09:34;10.67;;;3.60;;
21168;SDS011;10742;51.816;8.662;2022-12-18T05:12:36;14.63;;;4.80;;
21168;SDS011;10742;51.816;8.662;2022-12-18T05:15:59;9.27;;;3.67;;
21168;SDS011;10742;51.816;8.662;2022-12-18T05:19:02;12.67;;;4.73;;
21168;SDS011;10742;51.816;8.662;2022-12-18T05:22:04;15.77;;;4.47;;
21168;SDS011;10742;51.816;8.662;2022-12-18T05:25:08;19.50;;;4.33;;
21168;SDS011;10742;51.816;8.662;2022-12-18T05:28:10;14.23;;;4.27;;
21168;SDS011;10742;51.816;8.662;2022-12-18T05:31:13;12.20;;;3.97;;
21168;SDS011;10742;51.816;8.662;2022-12-18T05:34:16;12.73;;;4.17;;
21168;SDS011;10742;51.816;8.662;2022-12-18T05:37:20;12.00;;;3.67;;
21168;SDS011;10742;51.816;8.662;2022-12-18T05:40:22;12.83;;;3.90;;
21168;SDS011;10742;51.816;8.662;2022-12-18T05:43:27;11.00;;;4.07;;
21168;SDS011;10742;51.816;8.662;2022-12-18T05:46:29;10.97;;;3.80;;
21168;SDS011;10742;51.816;8.662;2022-12-18T05:49:32;9.13;;;3.67;;
21168;SDS011;10742;51.816;8.662;2022-12-18T05:52:35;13.20;;;3.87;;
21168;SDS011;10742;51.816;8.662;2022-12-18T05:55:39;8.87;;;3.63;;
21168;SDS011;10742;51.816;8.662;2022-12-18T05:58:43;10.37;;;4.23;;
21168;SDS011;10742;51.816;8.662;2022-12-18T06:01:46;12.73;;;4.30;;
21168;SDS011;10742;51.816;8.662;2022-12-18T06:04:49;14.83;;;4.10;;
21168;SDS011;10742;51.816;8.662;2022-12-18T06:07:52;12.57;;;3.83;;
21168;SDS011;10742;51.816;8.662;2022-12-18T06:10:55;13.57;;;5.00;;
21168;SDS011;10742;51.816;8.662;2022-12-18T06:13:57;15.57;;;4.70;;
21168;SDS011;10742;51.816;8.662;2022-12-18T06:17:01;14.60;;;4.60;;
21168;SDS011;10742;51.816;8.662;2022-12-18T06:20:04;12.50;;;4.07;;
21168;SDS011;10742;51.816;8.662;2022-12-18T06:23:08;13.10;;;4.47;;
21168;SDS011;10742;51.816;8.662;2022-12-18T06:26:11;17.93;;;5.30;;
21168;SDS011;10742;51.816;8.662;2022-12-18T06:29:16;19.30;;;5.90;;
21168;SDS011;10742;51.816;8.662;2022-12-18T06:32:19;19.73;;;5.97;;
21168;SDS011;10742;51.816;8.662;2022-12-18T06:35:22;20.77;;;5.90;;
21168;SDS011;10742;51.816;8.662;2022-12-18T06:38:24;17.23;;;5.10;;
21168;SDS011;10742;51.816;8.662;2022-12-18T06:41:27;15.70;;;4.97;;
21168;SDS011;10742;51.816;8.662;2022-12-18T06:44:30;18.40;;;5.57;;
21168;SDS011;10742;51.816;8.662;2022-12-18T06:47:32;16.30;;;4.83;;
21168;SDS011;10742;51.816;8.662;2022-12-18T06:50:35;16.43;;;5.17;;
21168;SDS011;10742;51.816;8.662;2022-12-18T06:53:37;13.73;;;4.63;;
21168;SDS011;10742;51.816;8.662;2022-12-18T06:56:41;18.60;;;4.83;;
21168;SDS011;10742;51.816;8.662;2022-12-18T06:59:44;14.13;;;4.90;;
21168;SDS011;10742;51.816;8.662;2022-12-18T07:02:46;15.73;;;5.10;;
21168;SDS011;10742;51.816;8.662;2022-12-18T07:05:49;12.63;;;4.37;;
21168;SDS011;10742;51.816;8.662;2022-12-18T07:08:53;17.07;;;5.00;;
21168;SDS011;10742;51.816;8.662;2022-12-18T07:11:55;11.87;;;4.73;;
21168;SDS011;10742;51.816;8.662;2022-12-18T07:14:58;10.57;;;4.10;;
21168;SDS011;10742;51.816;8.662;2022-12-18T07:18:01;12.73;;;4.00;;
21168;SDS011;10742;51.816;8.662;2022-12-18T07:21:04;12.83;;;4.37;;
21168;SDS011;10742;51.816;8.662;2022-12-18T07:24:08;12.57;;;4.27;;
21168;SDS011;10742;51.816;8.662;2022-12-18T07:27:11;12.23;;;4.20;;
21168;SDS011;10742;51.816;8.662;2022-12-18T07:30:14;14.33;;;4.13;;
21168;SDS011;10742;51.816;8.662;2022-12-18T07:33:16;11.87;;;4.03;;
21168;SDS011;10742;51.816;8.662;2022-12-18T07:36:19;11.33;;;4.00;;
21168;SDS011;10742;51.816;8.662;2022-12-18T07:39:26;11.90;;;4.23;;
21168;SDS011;10742;51.816;8.662;2022-12-18T07:42:30;12.53;;;4.10;;
21168;SDS011;10742;51.816;8.662;2022-12-18T07:45:33;10.17;;;3.97;;
21168;SDS011;10742;51.816;8.662;2022-12-18T07:48:36;13.03;;;4.57;;
21168;SDS011;10742;51.816;8.662;2022-12-18T07:51:40;13.87;;;4.17;;
21168;SDS011;10742;51.816;8.662;2022-12-18T07:54:43;14.07;;;4.50;;
21168;SDS011;10742;51.816;8.662;2022-12-18T07:57:45;12.90;;;4.70;;
21168;SDS011;10742;51.816;8.662;2022-12-18T08:00:52;12.07;;;4.70;;
21168;SDS011;10742;51.816;8.662;2022-12-18T08:03:55;14.67;;;4.93;;
21168;SDS011;10742;51.816;8.662;2022-12-18T08:06:59;15.63;;;5.13;;
21168;SDS011;10742;51.816;8.662;2022-12-18T08:10:02;16.20;;;5.00;;
21168;SDS011;10742;51.816;8.662;2022-12-18T08:13:06;16.97;;;5.23;;
21168;SDS011;10742;51.816;8.662;2022-12-18T08:16:08;16.87;;;5.17;;
21168;SDS011;10742;51.816;8.662;2022-12-18T08:19:11;17.87;;;4.77;;
21168;SDS011;10742;51.816;8.662;2022-12-18T08:22:15;17.47;;;4.90;;
21168;SDS011;10742;51.816;8.662;2022-12-18T08:25:17;20.03;;;4.73;;
21168;SDS011;10742;51.816;8.662;2022-12-18T08:28:19;13.87;;;4.67;;
21168;SDS011;10742;51.816;8.662;2022-12-18T08:31:22;15.70;;;5.00;;
21168;SDS011;10742;51.816;8.662;2022-12-18T08:34:25;17.37;;;4.60;;
21168;SDS011;10742;51.816;8.662;2022-12-18T08:37:29;13.37;;;4.90;;
21168;SDS011;10742;51.816;8.662;2022-12-18T08:40:31;19.50;;;5.13;;
21168;SDS011;10742;51.816;8.662;2022-12-18T08:43:34;13.53;;;5.33;;
21168;SDS011;10742;51.816;8.662;2022-12-18T08:46:55;13.00;;;4.60;;
21168;SDS011;10742;51.816;8.662;2022-12-18T08:49:57;14.07;;;4.90;;
21168;SDS011;10742;51.816;8.662;2022-12-18T08:53:00;16.23;;;4.40;;
21168;SDS011;10742;51.816;8.662;2022-12-18T08:56:03;12.30;;;4.30;;
21168;SDS011;10742;51.816;8.662;2022-12-18T08:59:07;13.80;;;4.87;;
21168;SDS011;10742;51.816;8.662;2022-12-18T09:02:13;13.63;;;4.93;;
21168;SDS011;10742;51.816;8.662;2022-12-18T09:05:16;14.47;;;4.47;;
21168;SDS011;10742;51.816;8.662;2022-12-18T09:08:19;11.63;;;4.47;;
21168;SDS011;10742;51.816;8.662;2022-12-18T09:11:22;13.90;;;5.10;;
21168;SDS011;10742;51.816;8.662;2022-12-18T09:14:27;13.07;;;4.53;;
21168;SDS011;10742;51.816;8.662;2022-12-18T09:17:30;11.50;;;4.20;;
21168;SDS011;10742;51.816;8.662;2022-12-18T09:20:32;14.77;;;4.87;;
21168;SDS011;10742;51.816;8.662;2022-12-18T09:23:35;13.67;;;4.93;;
21168;SDS011;10742;51.816;8.662;2022-12-18T09:26:38;11.90;;;4.20;;
21168;SDS011;10742;51.816;8.662;2022-12-18T09:29:40;19.90;;;6.10;;
21168;SDS011;10742;51.816;8.662;2022-12-18T09:32:43;16.40;;;4.53;;
21168;SDS011;10742;51.816;8.662;2022-12-18T09:35:45;15.57;;;4.53;;
21168;SDS011;10742;51.816;8.662;2022-12-18T09:38:48;15.17;;;4.47;;
21168;SDS011;10742;51.816;8.662;2022-12-18T09:41:52;13.87;;;4.13;;
21168;SDS011;10742;51.816;8.662;2022-12-18T09:44:57;12.73;;;4.47;;
21168;SDS011;10742;51.816;8.662;2022-12-18T09:48:00;14.17;;;4.33;;
21168;SDS011;10742;51.816;8.662;2022-12-18T09:51:08;14.07;;;4.73;;
21168;SDS011;10742;51.816;8.662;2022-12-18T09:54:26;14.97;;;4.63;;
21168;SDS011;10742;51.816;8.662;2022-12-18T09:57:39;12.03;;;4.30;;
21168;SDS011;10742;51.816;8.662;2022-12-18T10:00:51;16.63;;;4.50;;
21168;SDS011;10742;51.816;8.662;2022-12-18T10:03:55;15.10;;;4.70;;
21168;SDS011;10742;51.816;8.662;2022-12-18T10:07:08;11.23;;;4.50;;
21168;SDS011;10742;51.816;8.662;2022-12-18T10:23:31;10.70;;;3.80;;
21168;SDS011;10742;51.816;8.662;2022-12-18T10:26:59;12.00;;;4.00;;
21168;SDS011;10742;51.816;8.662;2022-12-18T10:30:18;10.37;;;4.03;;
21168;SDS011;10742;51.816;8.662;2022-12-18T10:33:27;11.73;;;3.93;;
21168;SDS011;10742;51.816;8.662;2022-12-18T10:36:31;11.27;;;4.10;;
21168;SDS011;10742;51.816;8.662;2022-12-18T10:39:34;11.23;;;4.00;;
21168;SDS011;10742;51.816;8.662;2022-12-18T10:42:36;14.67;;;4.30;;
21168;SDS011;10742;51.816;8.662;2022-12-18T10:45:40;11.40;;;4.13;;
21168;SDS011;10742;51.816;8.662;2022-12-18T10:51:50;10.83;;;3.90;;
21168;SDS011;10742;51.816;8.662;2022-12-18T10:55:06;14.10;;;4.40;;
21168;SDS011;10742;51.816;8.662;2022-12-18T10:58:35;13.07;;;4.47;;
21168;SDS011;10742;51.816;8.662;2022-12-18T11:01:50;12.30;;;4.63;;
21168;SDS011;10742;51.816;8.662;2022-12-18T11:04:54;15.73;;;4.57;;
21168;SDS011;10742;51.816;8.662;2022-12-18T11:07:57;13.67;;;4.43;;
21168;SDS011;10742;51.816;8.662;2022-12-18T11:11:03;11.90;;;4.57;;
21168;SDS011;10742;51.816;8.662;2022-12-18T11:14:18;9.50;;;4.30;;
21168;SDS011;10742;51.816;8.662;2022-12-18T11:17:29;8.33;;;3.77;;
21168;SDS011;10742;51.816;8.662;2022-12-18T11:20:34;9.40;;;3.93;;
21168;SDS011;10742;51.816;8.662;2022-12-18T11:23:46;15.10;;;4.00;;
21168;SDS011;10742;51.816;8.662;2022-12-18T11:26:54;11.87;;;4.33;;
21168;SDS011;10742;51.816;8.662;2022-12-18T11:30:20;13.10;;;4.27;;
21168;SDS011;10742;51.816;8.662;2022-12-18T11:33:24;18.63;;;6.27;;
21168;SDS011;10742;51.816;8.662;2022-12-18T11:36:28;19.57;;;6.57;;
21168;SDS011;10742;51.816;8.662;2022-12-18T11:39:37;13.37;;;4.13;;
21168;SDS011;10742;51.816;8.662;2022-12-18T11:42:49;9.57;;;3.47;;
21168;SDS011;10742;51.816;8.662;2022-12-18T11:46:05;10.83;;;4.00;;
21168;SDS011;10742;51.816;8.662;2022-12-18T11:49:28;9.90;;;3.70;;
21168;SDS011;10742;51.816;8.662;2022-12-18T11:52:41;14.83;;;5.27;;
21168;SDS011;10742;51.816;8.662;2022-12-18T11:59:12;14.30;;;4.73;;
21168;SDS011;10742;51.816;8.662;2022-12-18T12:16:37;8.03;;;3.50;;
21168;SDS011;10742;51.816;8.662;2022-12-18T12:19:51;9.33;;;3.97;;
21168;SDS011;10742;51.816;8.662;2022-12-18T12:26:38;12.43;;;4.33;;
21168;SDS011;10742;51.816;8.662;2022-12-18T12:30:16;11.80;;;3.70;;
21168;SDS011;10742;51.816;8.662;2022-12-18T12:33:31;10.77;;;3.90;;
21168;SDS011;10742;51.816;8.662;2022-12-18T12:40:03;9.30;;;4.20;;
21168;SDS011;10742;51.816;8.662;2022-12-18T12:43:24;11.37;;;4.03;;
21168;SDS011;10742;51.816;8.662;2022-12-18T12:46:36;10.23;;;3.40;;
21168;SDS011;10742;51.816;8.662;2022-12-18T12:49:44;10.60;;;3.50;;
21168;SDS011;10742;51.816;8.662;2022-12-18T12:52:51;8.97;;;3.60;;
21168;SDS011;10742;51.816;8.662;2022-12-18T12:55:55;9.77;;;3.53;;
21168;SDS011;10742;51.816;8.662;2022-12-18T13:08:52;7.17;;;3.10;;
21168;SDS011;10742;51.816;8.662;2022-12-18T13:12:12;13.57;;;3.63;;
21168;SDS011;10742;51.816;8.662;2022-12-18T13:15:40;10.83;;;3.87;;
21168;SDS011;10742;51.816;8.662;2022-12-18T13:18:50;10.50;;;4.53;;
21168;SDS011;10742;51.816;8.662;2022-12-18T13:22:00;8.47;;;3.47;;
21168;SDS011;10742;51.816;8.662;2022-12-18T13:25:03;16.30;;;4.13;;
21168;SDS011;10742;51.816;8.662;2022-12-18T13:31:57;14.27;;;5.00;;
21168;SDS011;10742;51.816;8.662;2022-12-18T13:41:27;10.73;;;3.30;;
21168;SDS011;10742;51.816;8.662;2022-12-18T13:44:37;10.10;;;3.13;;
21168;SDS011;10742;51.816;8.662;2022-12-18T13:47:42;8.60;;;3.00;;
21168;SDS011;10742;51.816;8.662;2022-12-18T13:50:49;8.30;;;3.03;;
21168;SDS011;10742;51.816;8.662;2022-12-18T13:54:00;8.17;;;3.80;;
21168;SDS011;10742;51.816;8.662;2022-12-18T13:57:26;11.40;;;4.23;;
21168;SDS011;10742;51.816;8.662;2022-12-18T14:00:33;14.73;;;4.90;;
21168;SDS011;10742;51.816;8.662;2022-12-18T14:03:35;9.27;;;3.60;;
21168;SDS011;10742;51.816;8.662;2022-12-18T14:06:39;18.30;;;5.33;;
21168;SDS011;10742;51.816;8.662;2022-12-18T14:09:58;16.93;;;4.57;;
21168;SDS011;10742;51.816;8.662;2022-12-18T14:13:09;16.17;;;4.73;;
21168;SDS011;10742;51.816;8.662;2022-12-18T14:16:13;13.97;;;4.50;;
21168;SDS011;10742;51.816;8.662;2022-12-18T14:19:18;15.83;;;5.90;;
21168;SDS011;10742;51.816;8.662;2022-12-18T14:22:21;16.63;;;4.97;;
21168;SDS011;10742;51.816;8.662;2022-12-18T14:25:31;14.53;;;4.77;;
21168;SDS011;10742;51.816;8.662;2022-12-18T14:28:42;16.77;;;5.50;;
21168;SDS011;10742;51.816;8.662;2022-12-18T14:31:46;14.03;;;4.30;;
21168;SDS011;10742;51.816;8.662;2022-12-18T14:35:12;9.13;;;3.93;;
21168;SDS011;10742;51.816;8.662;2022-12-18T14:41:36;15.80;;;4.83;;
21168;SDS011;10742;51.816;8.662;2022-12-18T14:44:38;29.03;;;8.47;;
21168;SDS011;10742;51.816;8.662;2022-12-18T14:47:51;36.40;;;9.73;;
21168;SDS011;10742;51.816;8.662;2022-12-18T14:51:04;19.70;;;5.80;;
21168;SDS011;10742;51.816;8.662;2022-12-18T14:54:14;22.47;;;6.73;;
21168;SDS011;10742;51.816;8.662;2022-12-18T15:00:26;20.20;;;6.20;;
21168;SDS011;10742;51.816;8.662;2022-12-18T15:03:30;16.87;;;5.70;;
21168;SDS011;10742;51.816;8.662;2022-12-18T15:06:37;14.90;;;4.87;;
21168;SDS011;10742;51.816;8.662;2022-12-18T15:09:42;13.73;;;4.77;;
21168;SDS011;10742;51.816;8.662;2022-12-18T15:16:05;17.77;;;6.03;;
21168;SDS011;10742;51.816;8.662;2022-12-18T15:19:15;15.67;;;5.33;;
21168;SDS011;10742;51.816;8.662;2022-12-18T15:22:24;14.67;;;5.13;;
21168;SDS011;10742;51.816;8.662;2022-12-18T15:25:34;13.47;;;5.47;;
21168;SDS011;10742;51.816;8.662;2022-12-18T15:28:43;13.37;;;5.03;;
21168;SDS011;10742;51.816;8.662;2022-12-18T15:32:02;16.60;;;5.40;;
21168;SDS011;10742;51.816;8.662;2022-12-18T15:38:16;13.80;;;4.90;;
21168;SDS011;10742;51.816;8.662;2022-12-18T15:41:20;15.13;;;5.10;;
21168;SDS011;10742;51.816;8.662;2022-12-18T15:44:25;15.87;;;5.17;;
21168;SDS011;10742;51.816;8.662;2022-12-18T15:47:28;17.00;;;5.50;;
21168;SDS011;10742;51.816;8.662;2022-12-18T15:50:31;16.97;;;5.30;;
21168;SDS011;10742;51.816;8.662;2022-12-18T15:53:34;16.47;;;6.00;;
21168;SDS011;10742;51.816;8.662;2022-12-18T15:56:37;15.43;;;5.67;;
21168;SDS011;10742;51.816;8.662;2022-12-18T15:59:58;18.10;;;5.43;;
21168;SDS011;10742;51.816;8.662;2022-12-18T16:03:01;15.53;;;5.30;;
21168;SDS011;10742;51.816;8.662;2022-12-18T16:06:04;20.00;;;5.57;;
21168;SDS011;10742;51.816;8.662;2022-12-18T16:09:07;16.10;;;6.07;;
21168;SDS011;10742;51.816;8.662;2022-12-18T16:12:13;17.03;;;5.93;;
21168;SDS011;10742;51.816;8.662;2022-12-18T16:15:18;19.00;;;5.70;;
21168;SDS011;10742;51.816;8.662;2022-12-18T16:18:24;18.60;;;6.60;;
21168;SDS011;10742;51.816;8.662;2022-12-18T16:21:28;20.27;;;6.47;;
21168;SDS011;10742;51.816;8.662;2022-12-18T16:24:35;17.83;;;6.63;;
21168;SDS011;10742;51.816;8.662;2022-12-18T16:27:39;23.37;;;7.70;;
21168;SDS011;10742;51.816;8.662;2022-12-18T16:30:42;28.73;;;9.43;;
21168;SDS011;10742;51.816;8.662;2022-12-18T16:33:45;24.83;;;8.37;;
21168;SDS011;10742;51.816;8.662;2022-12-18T16:36:48;24.37;;;7.97;;
21168;SDS011;10742;51.816;8.662;2022-12-18T16:39:53;22.07;;;7.67;;
21168;SDS011;10742;51.816;8.662;2022-12-18T16:42:55;23.93;;;7.53;;
21168;SDS011;10742;51.816;8.662;2022-12-18T16:45:59;21.93;;;7.97;;
21168;SDS011;10742;51.816;8.662;2022-12-18T16:49:02;18.80;;;7.07;;
21168;SDS011;10742;51.816;8.662;2022-12-18T16:52:05;20.97;;;7.00;;
21168;SDS011;10742;51.816;8.662;2022-12-18T16:55:09;19.87;;;7.20;;
21168;SDS011;10742;51.816;8.662;2022-12-18T16:58:12;23.13;;;8.03;;
21168;SDS011;10742;51.816;8.662;2022-12-18T17:01:15;24.70;;;8.63;;
21168;SDS011;10742;51.816;8.662;2022-12-18T17:04:19;23.23;;;8.30;;
21168;SDS011;10742;51.816;8.662;2022-12-18T17:07:21;27.53;;;9.50;;
21168;SDS011;10742;51.816;8.662;2022-12-18T17:10:25;26.40;;;8.10;;
21168;SDS011;10742;51.816;8.662;2022-12-18T17:13:28;30.03;;;9.27;;
21168;SDS011;10742;51.816;8.662;2022-12-18T17:16:30;23.23;;;8.53;;
21168;SDS011;10742;51.816;8.662;2022-12-18T17:19:33;25.07;;;9.40;;
21168;SDS011;10742;51.816;8.662;2022-12-18T17:22:36;30.23;;;9.83;;
21168;SDS011;10742;51.816;8.662;2022-12-18T17:25:38;25.40;;;9.23;;
21168;SDS011;10742;51.816;8.662;2022-12-18T17:28:41;26.47;;;9.33;;
21168;SDS011;10742;51.816;8.662;2022-12-18T17:31:44;34.50;;;9.50;;
21168;SDS011;10742;51.816;8.662;2022-12-18T17:34:48;24.63;;;9.17;;
21168;SDS011;10742;51.816;8.662;2022-12-18T17:37:51;27.77;;;9.83;;
21168;SDS011;10742;51.816;8.662;2022-12-18T17:40:54;28.33;;;10.37;;
21168;SDS011;10742;51.816;8.662;2022-12-18T17:44:06;26.13;;;9.90;;
21168;SDS011;10742;51.816;8.662;2022-12-18T17:47:10;28.93;;;11.17;;
21168;SDS011;10742;51.816;8.662;2022-12-18T17:50:15;32.13;;;11.43;;
21168;SDS011;10742;51.816;8.662;2022-12-18T17:53:17;30.47;;;11.13;;
21168;SDS011;10742;51.816;8.662;2022-12-18T17:56:21;33.07;;;10.80;;
21168;SDS011;10742;51.816;8.662;2022-12-18T17:59:24;30.10;;;10.83;;
21168;SDS011;10742;51.816;8.662;2022-12-18T18:02:27;34.33;;;12.67;;
21168;SDS011;10742;51.816;8.662;2022-12-18T18:05:30;64.93;;;26.40;;
21168;SDS011;10742;51.816;8.662;2022-12-18T18:08:34;46.33;;;18.13;;
21168;SDS011;10742;51.816;8.662;2022-12-18T18:11:38;36.73;;;14.47;;
21168;SDS011;10742;51.816;8.662;2022-12-18T18:14:59;81.17;;;34.83;;
21168;SDS011;10742;51.816;8.662;2022-12-18T18:18:02;151.87;;;60.97;;
21168;SDS011;10742;51.816;8.662;2022-12-18T18:21:07;39.23;;;16.33;;
21168;SDS011;10742;51.816;8.662;2022-12-18T18:24:11;33.83;;;13.00;;
21168;SDS011;10742;51.816;8.662;2022-12-18T18:27:15;32.87;;;11.87;;
21168;SDS011;10742;51.816;8.662;2022-12-18T18:30:17;36.63;;;14.03;;
21168;SDS011;10742;51.816;8.662;2022-12-18T18:33:20;33.70;;;12.27;;
21168;SDS011;10742;51.816;8.662;2022-12-18T18:36:23;31.27;;;11.77;;
21168;SDS011;10742;51.816;8.662;2022-12-18T18:39:27;33.57;;;12.23;;
21168;SDS011;10742;51.816;8.662;2022-12-18T18:42:30;30.43;;;11.40;;
21168;SDS011;10742;51.816;8.662;2022-12-18T18:45:34;31.47;;;11.60;;
21168;SDS011;10742;51.816;8.662;2022-12-18T18:48:36;32.70;;;11.80;;
21168;SDS011;10742;51.816;8.662;2022-12-18T18:51:42;32.47;;;10.63;;
21168;SDS011;10742;51.816;8.662;2022-12-18T18:54:45;33.20;;;12.67;;
21168;SDS011;10742;51.816;8.662;2022-12-18T18:58:05;32.47;;;12.87;;
21168;SDS011;10742;51.816;8.662;2022-12-18T19:01:15;34.67;;;12.33;;
21168;SDS011;10742;51.816;8.662;2022-12-18T19:04:20;32.93;;;12.90;;
21168;SDS011;10742;51.816;8.662;2022-12-18T19:07:23;33.67;;;12.50;;
21168;SDS011;10742;51.816;8.662;2022-12-18T19:10:25;31.87;;;11.70;;
21168;SDS011;10742;51.816;8.662;2022-12-18T19:13:29;32.90;;;11.77;;
21168;SDS011;10742;51.816;8.662;2022-12-18T19:16:34;31.93;;;12.60;;
21168;SDS011;10742;51.816;8.662;2022-12-18T19:19:37;33.90;;;12.67;;
21168;SDS011;10742;51.816;8.662;2022-12-18T19:22:40;34.70;;;12.60;;
21168;SDS011;10742;51.816;8.662;2022-12-18T19:25:42;38.67;;;13.30;;
21168;SDS011;10742;51.816;8.662;2022-12-18T19:28:46;34.57;;;12.10;;
21168;SDS011;10742;51.816;8.662;2022-12-18T19:31:48;32.93;;;12.40;;
21168;SDS011;10742;51.816;8.662;2022-12-18T19:34:52;33.17;;;12.37;;
21168;SDS011;10742;51.816;8.662;2022-12-18T19:37:54;34.20;;;12.83;;
21168;SDS011;10742;51.816;8.662;2022-12-18T19:40:57;32.17;;;12.27;;
21168;SDS011;10742;51.816;8.662;2022-12-18T19:44:00;34.13;;;12.63;;
21168;SDS011;10742;51.816;8.662;2022-12-18T19:47:03;33.10;;;12.67;;
21168;SDS011;10742;51.816;8.662;2022-12-18T19:50:06;32.43;;;12.23;;
21168;SDS011;10742;51.816;8.662;2022-12-18T19:53:10;33.63;;;12.00;;
21168;SDS011;10742;51.816;8.662;2022-12-18T19:56:14;34.13;;;13.20;;
21168;SDS011;10742;51.816;8.662;2022-12-18T19:59:19;34.77;;;12.63;;
21168;SDS011;10742;51.816;8.662;2022-12-18T20:02:21;34.23;;;11.80;;
21168;SDS011;10742;51.816;8.662;2022-12-18T20:05:24;31.60;;;12.30;;
21168;SDS011;10742;51.816;8.662;2022-12-18T20:08:27;32.83;;;13.37;;
21168;SDS011;10742;51.816;8.662;2022-12-18T20:11:31;32.03;;;11.73;;